createdAt,value
2022-10-19T00:00:26.068Z,3.53
2022-10-19T00:02:52.843Z,3.35
2022-10-19T00:05:19.453Z,3.70
2022-10-19T00:07:46.142Z,4.05
2022-10-19T00:10:12.775Z,3.38
2022-10-19T00:12:39.493Z,3.55
2022-10-19T00:15:06.620Z,3.70
2022-10-19T00:17:34.840Z,3.55
2022-10-19T00:20:01.867Z,3.28
2022-10-19T00:22:28.564Z,3.35
2022-10-19T00:24:57.992Z,3.42
2022-10-19T00:27:24.647Z,3.10
2022-10-19T00:29:51.282Z,3.55
2022-10-19T00:32:17.924Z,3.47
2022-10-19T00:34:44.548Z,4.13
2022-10-19T00:37:11.148Z,3.22
2022-10-19T00:39:38.455Z,4.15
2022-10-19T00:42:05.395Z,3.58
2022-10-19T00:44:32.128Z,3.60
2022-10-19T00:47:03.290Z,2.75
2022-10-19T00:49:37.856Z,3.45
2022-10-19T00:52:08.626Z,3.53
2022-10-19T00:54:38.479Z,3.00
2022-10-19T00:57:06.554Z,3.35
2022-10-19T00:59:34.347Z,2.80
2022-10-19T01:02:03.752Z,3.17
2022-10-19T01:04:32.357Z,3.28
2022-10-19T01:07:00.183Z,2.88
2022-10-19T01:09:26.884Z,3.10
2022-10-19T01:12:16.830Z,3.00
2022-10-19T01:15:20.991Z,2.90
2022-10-19T01:17:55.989Z,2.95
2022-10-19T01:20:28.730Z,3.33
2022-10-19T01:23:00.368Z,3.17
2022-10-19T01:25:32.929Z,3.33
2022-10-19T01:28:32.559Z,2.88
2022-10-19T01:31:04.838Z,3.00
2022-10-19T01:33:48.180Z,3.00
2022-10-19T01:36:36.147Z,2.70
2022-10-19T01:39:09.198Z,2.92
2022-10-19T01:41:55.414Z,2.78
2022-10-19T01:44:38.824Z,2.67
2022-10-19T01:47:14.827Z,3.15
2022-10-19T01:50:00.562Z,3.15
2022-10-19T01:52:27.662Z,3.22
2022-10-19T01:54:58.339Z,2.95
2022-10-19T01:57:32.986Z,2.92
2022-10-19T02:00:07.200Z,3.30
2022-10-19T02:02:40.973Z,3.67
2022-10-19T02:05:09.716Z,3.92
2022-10-19T02:07:38.925Z,4.05
2022-10-19T02:10:06.500Z,3.03
2022-10-19T02:12:34.306Z,3.45
2022-10-19T02:15:09.323Z,3.58
2022-10-19T02:17:41.865Z,3.00
2022-10-19T02:20:09.032Z,3.47
2022-10-19T02:22:36.258Z,3.63
2022-10-19T02:25:03.459Z,3.00
2022-10-19T02:27:30.293Z,2.70
2022-10-19T02:29:57.084Z,3.45
2022-10-19T02:32:23.721Z,5.22
2022-10-19T02:34:50.356Z,4.20
2022-10-19T02:37:19.859Z,6.05
2022-10-19T02:39:48.720Z,6.30
2022-10-19T02:42:22.476Z,4.45
2022-10-19T02:45:06.809Z,5.20
2022-10-19T02:47:42.013Z,5.30
2022-10-19T02:50:09.782Z,4.50
2022-10-19T02:52:42.514Z,4.43
2022-10-19T02:55:09.828Z,3.75
2022-10-19T02:57:37.006Z,3.42
2022-10-19T03:00:06.397Z,3.25
2022-10-19T03:02:33.346Z,3.17
2022-10-19T03:04:59.955Z,3.13
2022-10-19T03:07:26.689Z,3.05
2022-10-19T03:09:53.288Z,3.10
2022-10-19T03:12:19.979Z,3.20
2022-10-19T03:14:46.749Z,2.95
2022-10-19T03:17:13.519Z,2.90
2022-10-19T03:19:40.302Z,3.40
2022-10-19T03:22:06.968Z,3.05
2022-10-19T03:24:33.998Z,3.08
2022-10-19T03:27:00.801Z,2.88
2022-10-19T03:29:27.423Z,3.28
2022-10-19T03:31:54.039Z,3.00
2022-10-19T03:34:20.748Z,3.28
2022-10-19T03:36:47.615Z,3.13
2022-10-19T03:39:15.790Z,3.08
2022-10-19T03:41:42.694Z,3.15
2022-10-19T03:44:10.710Z,3.10
2022-10-19T03:46:38.253Z,3.20
2022-10-19T03:49:05.782Z,3.33
2022-10-19T03:51:33.736Z,3.28
2022-10-19T03:54:19.356Z,3.33
2022-10-19T03:56:46.522Z,2.88
2022-10-19T03:59:15.018Z,2.72
2022-10-19T04:01:44.822Z,2.40
2022-10-19T04:04:14.756Z,3.05
2022-10-19T04:06:43.645Z,2.60
2022-10-19T04:09:13.458Z,2.85
2022-10-19T04:11:40.554Z,2.60
2022-10-19T04:14:07.392Z,2.80
2022-10-19T04:16:34.490Z,2.80
2022-10-19T04:19:01.284Z,2.60
2022-10-19T04:21:33.580Z,3.22
2022-10-19T04:24:03.324Z,3.50
2022-10-19T04:26:30.526Z,2.92
2022-10-19T04:28:58.630Z,3.25
2022-10-19T04:31:25.764Z,3.10
2022-10-19T04:33:52.401Z,2.88
2022-10-19T04:36:19.132Z,3.20
2022-10-19T04:38:45.737Z,3.28
2022-10-19T04:41:15.670Z,2.42
2022-10-19T04:43:45.086Z,2.53
2022-10-19T04:46:13.992Z,2.65
2022-10-19T04:48:41.364Z,2.90
2022-10-19T04:51:08.973Z,3.10
2022-10-19T04:53:37.970Z,2.80
2022-10-19T04:56:11.086Z,2.97
2022-10-19T04:58:37.737Z,3.13
2022-10-19T05:01:15.087Z,3.08
2022-10-19T05:03:41.979Z,3.13
2022-10-19T05:06:09.929Z,3.83
2022-10-19T05:08:37.350Z,2.95
2022-10-19T05:11:06.929Z,3.20
2022-10-19T05:13:34.208Z,2.88
2022-10-19T05:16:03.296Z,3.30
2022-10-19T05:18:30.228Z,3.28
2022-10-19T05:21:11.567Z,3.22
2022-10-19T05:23:38.730Z,4.00
2022-10-19T05:26:08.570Z,3.83
2022-10-19T05:28:36.347Z,2.88
2022-10-19T05:31:17.735Z,3.65
2022-10-19T05:33:45.023Z,3.88
2022-10-19T05:36:16.701Z,3.67
2022-10-19T05:38:44.634Z,3.28
2022-10-19T05:41:11.587Z,3.50
2022-10-19T05:43:39.170Z,3.45
2022-10-19T05:46:07.765Z,3.20
2022-10-19T05:48:35.519Z,3.30
2022-10-19T05:51:03.208Z,3.25
2022-10-19T05:53:29.981Z,3.30
2022-10-19T05:55:56.918Z,3.50
2022-10-19T05:58:23.701Z,3.22
2022-10-19T06:00:54.126Z,3.15
2022-10-19T06:03:22.042Z,3.58
2022-10-19T06:05:52.800Z,4.18
2022-10-19T06:08:21.159Z,4.10
2022-10-19T06:10:49.328Z,3.78
2022-10-19T06:13:17.301Z,4.63
2022-10-19T06:15:43.976Z,5.47
2022-10-19T06:18:12.746Z,3.78
2022-10-19T06:20:42.071Z,4.03
2022-10-19T06:23:09.302Z,4.05
2022-10-19T06:25:36.395Z,3.67
2022-10-19T06:28:03.867Z,4.07
2022-10-19T06:30:30.532Z,3.70
2022-10-19T06:32:59.157Z,4.10
2022-10-19T06:35:25.927Z,3.70
2022-10-19T06:37:52.593Z,3.60
2022-10-19T06:40:19.380Z,4.03
2022-10-19T06:42:46.171Z,3.67
2022-10-19T06:45:12.813Z,3.90
2022-10-19T06:47:39.598Z,4.15
2022-10-19T06:50:07.654Z,4.53
2022-10-19T06:52:35.726Z,4.57
2022-10-19T06:55:02.508Z,4.45
2022-10-19T06:57:29.183Z,4.78
2022-10-19T06:59:56.008Z,4.78
2022-10-19T07:02:22.685Z,5.35
2022-10-19T07:04:49.314Z,4.70
2022-10-19T07:07:15.929Z,5.05
2022-10-19T07:09:42.511Z,4.45
2022-10-19T07:12:10.750Z,4.25
2022-10-19T07:14:39.672Z,5.20
2022-10-19T07:17:11.913Z,4.70
2022-10-19T07:19:38.670Z,4.78
2022-10-19T07:22:05.350Z,4.43
2022-10-19T07:24:32.009Z,4.78
2022-10-19T07:26:58.744Z,4.72
2022-10-19T07:29:25.298Z,4.70
2022-10-19T07:31:51.931Z,5.18
2022-10-19T07:34:18.503Z,4.45
2022-10-19T07:36:47.937Z,4.60
2022-10-19T07:39:16.967Z,4.82
2022-10-19T07:41:44.268Z,5.32
2022-10-19T07:44:15.648Z,4.50
2022-10-19T07:46:42.949Z,6.10
2022-10-19T07:49:13.843Z,5.47
2022-10-19T07:51:40.512Z,5.43
2022-10-19T07:54:07.184Z,4.80
2022-10-19T07:56:34.198Z,5.00
2022-10-19T07:59:01.616Z,6.05
2022-10-19T08:01:33.741Z,5.35
2022-10-19T08:06:47.855Z,4.57
2022-10-19T08:09:33.314Z,5.25
2022-10-19T08:12:01.891Z,3.78
2022-10-19T08:14:28.487Z,4.30
2022-10-19T08:16:55.126Z,5.10
2022-10-19T08:19:22.544Z,5.07
2022-10-19T08:21:49.167Z,4.55
2022-10-19T08:24:17.500Z,4.05
2022-10-19T08:26:44.129Z,4.10
2022-10-19T08:29:13.697Z,4.40
2022-10-19T08:31:41.488Z,4.97
2022-10-19T08:34:08.512Z,5.00
2022-10-19T08:36:36.024Z,3.60
2022-10-19T08:39:05.101Z,3.85
2022-10-19T08:41:37.981Z,5.28
2022-10-19T08:44:16.412Z,3.30
2022-10-19T08:47:19.704Z,2.22
2022-10-19T08:49:49.362Z,3.40
2022-10-19T08:52:21.044Z,2.13
2022-10-19T08:54:56.547Z,4.43
2022-10-19T08:57:40.935Z,4.47
2022-10-19T09:00:17.295Z,4.65
2022-10-19T09:02:58.886Z,3.35
2022-10-19T09:05:46.562Z,3.13
2022-10-19T09:08:17.568Z,2.17
2022-10-19T09:10:48.826Z,3.10
2022-10-19T09:14:04.679Z,3.88
2022-10-19T09:16:32.750Z,4.20
2022-10-19T09:18:59.409Z,4.75
2022-10-19T09:21:51.442Z,4.82
2022-10-19T09:24:28.074Z,2.70
2022-10-19T09:27:00.428Z,2.95
2022-10-19T09:29:39.702Z,3.30
2022-10-19T09:32:15.562Z,2.88
2022-10-19T09:34:48.596Z,2.40
2022-10-19T09:37:24.797Z,3.92
2022-10-19T09:39:54.938Z,3.50
2022-10-19T09:42:22.617Z,3.03
2022-10-19T09:44:51.320Z,3.47
2022-10-19T09:47:17.878Z,4.00
2022-10-19T09:49:47.113Z,4.50
2022-10-19T09:52:35.893Z,2.58
2022-10-19T09:55:14.834Z,3.10
2022-10-19T09:57:46.545Z,2.65
2022-10-19T10:00:19.397Z,3.70
2022-10-19T10:02:51.194Z,3.60
2022-10-19T10:05:19.277Z,1.95
2022-10-19T10:07:46.184Z,3.15
2022-10-19T10:10:26.770Z,2.90
2022-10-19T10:12:59.527Z,2.22
2022-10-19T10:15:28.420Z,2.85
2022-10-19T10:17:56.161Z,2.60
2022-10-19T10:20:30.257Z,3.00
2022-10-19T10:22:59.239Z,2.88
2022-10-19T10:25:36.377Z,1.88
2022-10-19T10:28:21.277Z,2.08
2022-10-19T10:30:53.323Z,0.50
2022-10-19T10:33:40.772Z,2.58
2022-10-19T10:36:12.156Z,2.08
2022-10-19T10:38:47.016Z,1.95
2022-10-19T10:41:20.194Z,0.70
2022-10-19T10:44:06.654Z,2.00
2022-10-19T10:46:42.741Z,2.03
2022-10-19T10:49:19.889Z,2.00
2022-10-19T10:51:53.006Z,2.88
2022-10-19T10:54:32.287Z,0.90
2022-10-19T10:57:09.640Z,0.52
2022-10-19T11:00:02.161Z,2.10
2022-10-19T11:02:49.595Z,1.63
2022-10-19T11:05:27.595Z,1.63
2022-10-19T11:08:05.345Z,2.17
2022-10-19T11:10:36.415Z,1.77
2022-10-19T11:13:24.175Z,1.67
2022-10-19T11:16:06.216Z,1.60
2022-10-19T11:18:39.939Z,1.75
2022-10-19T11:21:14.621Z,2.05
2022-10-19T11:24:09.235Z,1.90
2022-10-19T11:26:57.480Z,1.83
2022-10-19T11:29:26.743Z,1.08
2022-10-19T11:31:55.515Z,2.20
2022-10-19T11:34:44.080Z,1.95
2022-10-19T11:37:19.814Z,1.92
2022-10-19T11:40:03.441Z,1.80
2022-10-19T11:42:49.025Z,2.00
2022-10-19T11:45:18.691Z,1.90
2022-10-19T11:48:12.769Z,1.90
2022-10-19T11:51:20.855Z,1.80
2022-10-19T11:53:51.631Z,1.88
2022-10-19T11:57:01.727Z,1.70
2022-10-19T12:00:13.652Z,1.98
2022-10-19T12:03:03.387Z,1.83
2022-10-19T12:05:53.090Z,2.08
2022-10-19T12:08:47.692Z,1.60
2022-10-19T12:11:38.474Z,1.88
2022-10-19T12:14:11.189Z,1.90
2022-10-19T12:16:49.880Z,2.17
2022-10-19T12:19:28.904Z,2.05
2022-10-19T12:21:59.761Z,0.20
2022-10-19T12:24:29.784Z,2.10
2022-10-19T12:26:57.582Z,1.83
2022-10-19T12:29:37.628Z,2.30
2022-10-19T12:32:05.749Z,2.15
2022-10-19T12:35:17.262Z,1.80
2022-10-19T12:37:54.157Z,2.00
2022-10-19T12:40:33.949Z,1.75
2022-10-19T12:43:12.248Z,1.73
2022-10-19T12:45:54.808Z,1.63
2022-10-19T12:48:23.044Z,1.80
2022-10-19T12:50:49.808Z,2.17
2022-10-19T12:53:45.160Z,2.10
2022-10-19T12:56:25.940Z,1.60
2022-10-19T12:58:56.594Z,1.92
2022-10-19T13:01:44.186Z,2.03
2022-10-19T13:04:13.702Z,2.78
2022-10-19T13:06:47.400Z,1.60
2022-10-19T13:09:43.152Z,1.73
2022-10-19T13:12:19.666Z,1.42
2022-10-19T13:15:04.659Z,1.77
2022-10-19T13:17:37.182Z,2.50
2022-10-19T13:20:16.370Z,1.92
2022-10-19T13:22:51.575Z,2.10
2022-10-19T13:25:24.090Z,1.75
2022-10-19T13:27:52.794Z,1.90
2022-10-19T13:30:43.905Z,1.70
2022-10-19T13:33:25.443Z,2.38
2022-10-19T13:36:04.289Z,1.75
2022-10-19T13:38:42.428Z,1.80
2022-10-19T13:41:38.457Z,1.92
2022-10-19T13:44:22.832Z,2.03
2022-10-19T13:47:10.039Z,1.83
2022-10-19T13:49:51.716Z,2.28
2022-10-19T13:52:30.203Z,2.30
2022-10-19T13:55:38.364Z,2.10
2022-10-19T13:58:39.174Z,2.50
2022-10-19T14:01:53.136Z,1.65
2022-10-19T14:04:33.654Z,1.58
2022-10-19T14:07:17.347Z,1.60
2022-10-19T14:10:01.823Z,1.30
2022-10-19T14:12:31.135Z,2.08
2022-10-19T14:14:58.149Z,1.85
2022-10-19T14:17:29.916Z,1.60
2022-10-19T14:19:59.101Z,2.38
2022-10-19T14:22:25.862Z,2.20
2022-10-19T14:24:59.503Z,1.30
2022-10-19T14:27:26.169Z,1.75
2022-10-19T14:29:54.252Z,1.85
2022-10-19T14:32:27.188Z,1.67
2022-10-19T14:34:57.197Z,1.50
2022-10-19T14:37:26.372Z,1.80
2022-10-19T14:40:26.523Z,2.05
2022-10-19T14:42:54.776Z,2.03
2022-10-19T14:45:31.121Z,1.67
2022-10-19T14:48:02.217Z,2.00
2022-10-19T14:50:34.987Z,1.70
2022-10-19T14:53:33.355Z,1.58
2022-10-19T14:56:47.390Z,1.90
2022-10-19T14:59:26.057Z,1.48
2022-10-19T15:01:55.257Z,1.50
2022-10-19T15:04:25.297Z,1.55
2022-10-19T15:06:52.916Z,1.42
2022-10-19T15:09:43.726Z,1.75
2022-10-19T15:12:21.249Z,1.63
2022-10-19T15:14:48.522Z,1.42
2022-10-19T15:17:28.636Z,1.33
2022-10-19T15:19:58.319Z,1.27
2022-10-19T15:22:31.090Z,2.05
2022-10-19T15:25:06.865Z,1.75
2022-10-19T15:27:39.257Z,1.45
2022-10-19T15:30:20.974Z,1.70
2022-10-19T15:32:57.540Z,1.77
2022-10-19T15:35:35.536Z,1.70
2022-10-19T15:38:03.618Z,1.77
2022-10-19T15:40:34.507Z,1.48
2022-10-19T15:43:01.453Z,1.52
2022-10-19T15:45:35.415Z,1.77
2022-10-19T15:48:10.858Z,1.80
2022-10-19T15:50:50.309Z,1.50
2022-10-19T15:53:17.097Z,2.15
2022-10-19T15:55:44.030Z,2.25
2022-10-19T15:58:11.638Z,1.70
2022-10-19T16:00:39.203Z,1.77
2022-10-19T16:03:06.036Z,1.70
2022-10-19T16:05:34.730Z,1.70
2022-10-19T16:08:01.363Z,2.17
2022-10-19T16:10:28.783Z,1.73
2022-10-19T16:12:55.398Z,1.85
2022-10-19T16:15:23.374Z,1.80
2022-10-19T16:17:56.074Z,1.73
2022-10-19T16:20:23.773Z,1.55
2022-10-19T16:22:50.375Z,1.58
2022-10-19T16:25:17.228Z,2.08
2022-10-19T16:27:44.019Z,1.80
2022-10-19T16:30:11.212Z,2.13
2022-10-19T16:32:39.805Z,1.70
2022-10-19T16:35:08.438Z,1.83
2022-10-19T16:37:35.332Z,2.10
2022-10-19T16:40:02.106Z,1.60
2022-10-19T16:42:30.535Z,2.30
2022-10-19T16:44:57.411Z,1.70
2022-10-19T16:47:24.093Z,2.00
2022-10-19T16:49:58.736Z,2.67
2022-10-19T16:52:25.967Z,3.28
2022-10-19T16:54:52.763Z,3.40
2022-10-19T16:57:19.636Z,5.65
2022-10-19T16:59:49.293Z,2.42
2022-10-19T17:02:16.009Z,2.72
2022-10-19T17:04:42.612Z,2.33
2022-10-19T17:07:09.349Z,2.40
2022-10-19T17:09:41.683Z,1.98
2022-10-19T17:12:10.064Z,2.08
2022-10-19T17:14:38.423Z,1.90
2022-10-19T17:17:05.052Z,2.33
2022-10-19T17:19:31.916Z,2.92
2022-10-19T17:21:59.303Z,2.40
2022-10-19T17:24:26.105Z,2.05
2022-10-19T17:26:53.257Z,2.10
2022-10-19T17:29:21.020Z,2.00
2022-10-19T17:31:48.254Z,1.58
2022-10-19T17:34:15.395Z,2.08
2022-10-19T17:36:44.834Z,2.13
2022-10-19T17:39:17.447Z,2.45
2022-10-19T17:41:45.591Z,2.75
2022-10-19T17:44:12.323Z,2.08
2022-10-19T17:46:38.995Z,2.38
2022-10-19T17:49:05.923Z,2.28
2022-10-19T17:51:35.070Z,2.47
2022-10-19T17:54:08.355Z,2.90
2022-10-19T17:56:36.126Z,2.65
2022-10-19T17:59:03.170Z,2.15
2022-10-19T18:01:30.269Z,2.05
2022-10-19T18:03:56.897Z,2.50
2022-10-19T18:06:26.253Z,2.40
2022-10-19T18:08:55.628Z,3.30
2022-10-19T18:11:27.895Z,1.75
2022-10-19T18:13:56.916Z,2.50
2022-10-19T18:16:29.949Z,2.72
2022-10-19T18:18:58.376Z,1.38
2022-10-19T18:21:30.014Z,2.28
2022-10-19T18:23:58.065Z,2.45
2022-10-19T18:26:27.068Z,2.05
2022-10-19T18:28:55.173Z,2.88
2022-10-19T18:31:25.009Z,2.30
2022-10-19T18:34:03.841Z,2.20
2022-10-19T18:36:31.440Z,1.98
2022-10-19T18:39:00.854Z,2.45
2022-10-19T18:41:29.570Z,2.10
2022-10-19T18:43:59.071Z,2.30
2022-10-19T18:46:26.117Z,2.17
2022-10-19T18:48:53.665Z,2.30
2022-10-19T18:51:22.473Z,2.00
2022-10-19T18:53:49.681Z,2.20
2022-10-19T18:56:19.276Z,2.50
2022-10-19T18:58:46.275Z,1.67
2022-10-19T19:01:13.013Z,2.65
2022-10-19T19:03:45.057Z,2.15
2022-10-19T19:06:18.083Z,2.38
2022-10-19T19:11:22.094Z,2.20
2022-10-19T19:13:54.180Z,2.50
2022-10-19T19:16:21.840Z,2.72
2022-10-19T19:18:48.455Z,2.25
2022-10-19T19:21:23.327Z,2.42
2022-10-19T19:23:51.219Z,2.38
2022-10-19T19:26:18.824Z,2.60
2022-10-19T19:28:49.035Z,2.20
2022-10-19T19:31:18.554Z,2.40
2022-10-19T19:33:46.910Z,2.30
2022-10-19T19:36:15.315Z,2.22
2022-10-19T19:38:42.011Z,2.38
2022-10-19T19:41:11.230Z,2.38
2022-10-19T19:43:39.596Z,2.58
2022-10-19T19:46:09.489Z,2.25
2022-10-19T19:48:36.857Z,1.90
2022-10-19T19:51:03.826Z,2.80
2022-10-19T19:53:30.944Z,2.45
2022-10-19T19:55:57.535Z,2.75
2022-10-19T19:58:24.115Z,3.00
2022-10-19T20:00:50.673Z,3.53
2022-10-19T20:03:17.228Z,3.40
2022-10-19T20:05:43.819Z,3.38
2022-10-19T20:08:11.181Z,3.17
2022-10-19T20:10:39.618Z,3.50
2022-10-19T20:13:06.239Z,3.42
2022-10-19T20:15:32.868Z,2.65
2022-10-19T20:17:59.435Z,2.92
2022-10-19T20:20:25.972Z,3.15
2022-10-19T20:22:52.537Z,3.55
2022-10-19T20:25:19.155Z,3.53
2022-10-19T20:27:45.802Z,3.20
2022-10-19T20:30:12.452Z,2.90
2022-10-19T20:32:39.134Z,3.20
2022-10-19T20:35:07.314Z,2.70
2022-10-19T20:37:34.095Z,2.38
2022-10-19T20:40:02.444Z,2.67
2022-10-19T20:42:32.587Z,2.65
2022-10-19T20:44:59.310Z,2.33
2022-10-19T20:47:25.868Z,3.08
2022-10-19T20:49:52.651Z,3.17
2022-10-19T20:52:19.284Z,2.88
2022-10-19T20:54:47.397Z,2.97
2022-10-19T20:57:13.975Z,2.47
2022-10-19T20:59:40.565Z,3.17
2022-10-19T21:02:10.115Z,3.03
2022-10-19T21:04:36.765Z,2.35
2022-10-19T21:07:04.850Z,2.42
2022-10-19T21:09:31.537Z,2.50
2022-10-19T21:11:58.237Z,3.08
2022-10-19T21:14:28.598Z,4.10
2022-10-19T21:16:57.329Z,2.90
2022-10-19T21:19:26.859Z,2.72
2022-10-19T21:21:56.119Z,2.38
2022-10-19T21:24:25.330Z,2.40
2022-10-19T21:29:23.672Z,3.00
2022-10-19T21:31:53.042Z,2.40
2022-10-19T21:34:23.414Z,2.35
2022-10-19T21:36:50.467Z,2.25
2022-10-19T21:39:17.703Z,3.72
2022-10-19T21:41:44.285Z,2.10
2022-10-19T21:44:10.931Z,2.35
2022-10-19T21:46:37.581Z,2.33
2022-10-19T21:49:04.246Z,2.47
2022-10-19T21:51:33.664Z,3.08
2022-10-19T21:54:01.415Z,2.90
2022-10-19T21:56:28.555Z,2.60
2022-10-19T21:58:55.713Z,2.85
2022-10-19T22:01:25.260Z,2.33
2022-10-19T22:04:02.931Z,2.78
2022-10-19T22:06:31.501Z,1.55
2022-10-19T22:08:58.774Z,2.75
2022-10-19T22:11:26.338Z,2.65
2022-10-19T22:13:58.304Z,2.63
2022-10-19T22:16:26.542Z,2.47
2022-10-19T22:18:53.741Z,3.58
2022-10-19T22:21:26.003Z,2.42
2022-10-19T22:23:58.185Z,3.65
2022-10-19T22:26:27.712Z,3.70
2022-10-19T22:28:59.700Z,3.10
2022-10-19T22:31:28.433Z,2.67
2022-10-19T22:33:55.162Z,2.90
2022-10-19T22:36:21.993Z,2.53
2022-10-19T22:38:48.696Z,3.60
2022-10-19T22:41:15.352Z,2.58
2022-10-19T22:43:42.078Z,2.55
2022-10-19T22:46:08.711Z,2.38
2022-10-19T22:48:35.394Z,2.92
2022-10-19T22:51:02.337Z,3.00
2022-10-19T22:53:29.332Z,2.78
2022-10-19T22:55:55.971Z,2.00
2022-10-19T22:58:22.654Z,2.88
2022-10-19T23:01:04.527Z,2.70
2022-10-19T23:03:31.352Z,2.90
2022-10-19T23:05:58.065Z,3.40
2022-10-19T23:08:25.398Z,2.38
2022-10-19T23:10:52.297Z,2.88
2022-10-19T23:13:18.914Z,1.73
2022-10-19T23:15:46.117Z,3.80
2022-10-19T23:18:13.062Z,2.67
2022-10-19T23:20:39.807Z,2.75
2022-10-19T23:23:06.534Z,3.85
2022-10-19T23:25:33.236Z,2.83
2022-10-19T23:27:59.922Z,2.67
2022-10-19T23:30:26.646Z,2.15
2022-10-19T23:32:53.336Z,3.00
2022-10-19T23:35:20.033Z,4.20
2022-10-19T23:37:46.720Z,3.17
2022-10-19T23:40:13.395Z,3.20
2022-10-19T23:42:40.102Z,3.30
2022-10-19T23:45:07.292Z,2.63
2022-10-19T23:47:34.267Z,3.90
2022-10-19T23:50:01.169Z,3.38
2022-10-19T23:52:27.836Z,3.92
2022-10-19T23:54:54.493Z,3.92
2022-10-19T23:57:21.234Z,4.82
2022-10-19T23:59:47.909Z,3.97
